sensor_id;sensor_type;location;lat;lon;timestamp;temperature;humidity
10051;DHT22;5065;46.942;7.432;2023-04-24T00:01:53;13.40;99.90
10051;DHT22;5065;46.942;7.432;2023-04-24T00:04:20;13.40;99.90
10051;DHT22;5065;46.942;7.432;2023-04-24T00:06:52;13.40;99.90
10051;DHT22;5065;46.942;7.432;2023-04-24T00:09:22;13.30;99.90
10051;DHT22;5065;46.942;7.432;2023-04-24T00:11:50;13.30;99.90
10051;DHT22;5065;46.942;7.432;2023-04-24T00:14:17;13.20;99.90
10051;DHT22;5065;46.942;7.432;2023-04-24T00:16:44;13.20;99.90
10051;DHT22;5065;46.942;7.432;2023-04-24T00:19:11;13.20;99.90
10051;DHT22;5065;46.942;7.432;2023-04-24T00:21:39;13.20;99.90
10051;DHT22;5065;46.942;7.432;2023-04-24T00:24:08;13.20;99.90
10051;DHT22;5065;46.942;7.432;2023-04-24T00:26:35;13.20;99.90
10051;DHT22;5065;46.942;7.432;2023-04-24T00:29:02;13.10;99.90
10051;DHT22;5065;46.942;7.432;2023-04-24T00:31:30;13.10;99.90
10051;DHT22;5065;46.942;7.432;2023-04-24T00:33:58;13.10;99.90
10051;DHT22;5065;46.942;7.432;2023-04-24T00:36:25;13.20;99.90
10051;DHT22;5065;46.942;7.432;2023-04-24T00:38:52;13.20;99.90
10051;DHT22;5065;46.942;7.432;2023-04-24T00:41:21;13.10;99.90
10051;DHT22;5065;46.942;7.432;2023-04-24T00:43:48;13.10;99.90
10051;DHT22;5065;46.942;7.432;2023-04-24T00:46:16;13.10;99.90
10051;DHT22;5065;46.942;7.432;2023-04-24T00:48:43;13.10;99.90
10051;DHT22;5065;46.942;7.432;2023-04-24T00:51:11;13.00;99.90
10051;DHT22;5065;46.942;7.432;2023-04-24T00:53:38;13.10;99.90
10051;DHT22;5065;46.942;7.432;2023-04-24T00:56:06;13.10;99.90
10051;DHT22;5065;46.942;7.432;2023-04-24T00:58:34;13.10;99.90
10051;DHT22;5065;46.942;7.432;2023-04-24T01:01:02;13.10;99.90
10051;DHT22;5065;46.942;7.432;2023-04-24T01:03:33;13.10;99.90
10051;DHT22;5065;46.942;7.432;2023-04-24T01:06:03;13.00;99.90
10051;DHT22;5065;46.942;7.432;2023-04-24T01:08:31;13.00;99.90
10051;DHT22;5065;46.942;7.432;2023-04-24T01:10:58;13.00;99.90
10051;DHT22;5065;46.942;7.432;2023-04-24T01:13:25;13.10;99.90
10051;DHT22;5065;46.942;7.432;2023-04-24T01:15:54;13.10;99.90
10051;DHT22;5065;46.942;7.432;2023-04-24T01:18:21;13.10;99.90
10051;DHT22;5065;46.942;7.432;2023-04-24T01:20:49;13.10;99.90
10051;DHT22;5065;46.942;7.432;2023-04-24T01:23:19;13.10;99.90
10051;DHT22;5065;46.942;7.432;2023-04-24T01:25:46;13.10;99.90
10051;DHT22;5065;46.942;7.432;2023-04-24T01:28:15;13.10;99.90
10051;DHT22;5065;46.942;7.432;2023-04-24T01:30:43;13.00;99.90
10051;DHT22;5065;46.942;7.432;2023-04-24T01:33:10;13.10;99.90
10051;DHT22;5065;46.942;7.432;2023-04-24T01:35:38;13.00;99.90
10051;DHT22;5065;46.942;7.432;2023-04-24T01:38:05;13.00;99.90
10051;DHT22;5065;46.942;7.432;2023-04-24T01:40:34;13.00;99.90
10051;DHT22;5065;46.942;7.432;2023-04-24T01:43:02;13.00;99.90
10051;DHT22;5065;46.942;7.432;2023-04-24T01:45:29;13.00;99.90
10051;DHT22;5065;46.942;7.432;2023-04-24T01:47:56;12.90;99.90
10051;DHT22;5065;46.942;7.432;2023-04-24T01:50:24;12.90;99.90
10051;DHT22;5065;46.942;7.432;2023-04-24T01:52:51;12.90;99.90
10051;DHT22;5065;46.942;7.432;2023-04-24T01:55:18;12.90;99.90
10051;DHT22;5065;46.942;7.432;2023-04-24T01:57:47;12.80;99.90
10051;DHT22;5065;46.942;7.432;2023-04-24T02:00:14;12.80;99.90
10051;DHT22;5065;46.942;7.432;2023-04-24T02:02:41;12.80;99.90
10051;DHT22;5065;46.942;7.432;2023-04-24T02:05:09;12.80;99.90
10051;DHT22;5065;46.942;7.432;2023-04-24T02:07:36;12.70;99.90
10051;DHT22;5065;46.942;7.432;2023-04-24T02:10:04;12.70;99.90
10051;DHT22;5065;46.942;7.432;2023-04-24T02:12:31;12.70;99.90
10051;DHT22;5065;46.942;7.432;2023-04-24T02:15:00;12.70;99.90
10051;DHT22;5065;46.942;7.432;2023-04-24T02:17:27;12.70;99.90
10051;DHT22;5065;46.942;7.432;2023-04-24T02:19:55;12.70;99.90
10051;DHT22;5065;46.942;7.432;2023-04-24T02:22:22;12.70;99.90
10051;DHT22;5065;46.942;7.432;2023-04-24T02:24:49;12.70;99.90
10051;DHT22;5065;46.942;7.432;2023-04-24T02:27:16;12.70;99.90
10051;DHT22;5065;46.942;7.432;2023-04-24T02:29:43;12.70;99.90
10051;DHT22;5065;46.942;7.432;2023-04-24T02:32:12;12.70;99.90
10051;DHT22;5065;46.942;7.432;2023-04-24T02:34:41;12.60;99.90
10051;DHT22;5065;46.942;7.432;2023-04-24T02:37:08;12.70;99.90
10051;DHT22;5065;46.942;7.432;2023-04-24T02:39:35;12.60;99.90
10051;DHT22;5065;46.942;7.432;2023-04-24T02:42:02;12.60;99.90
10051;DHT22;5065;46.942;7.432;2023-04-24T02:44:29;12.60;99.90
10051;DHT22;5065;46.942;7.432;2023-04-24T02:46:56;12.60;99.90
10051;DHT22;5065;46.942;7.432;2023-04-24T02:49:25;12.60;99.90
10051;DHT22;5065;46.942;7.432;2023-04-24T02:51:52;12.60;99.90
10051;DHT22;5065;46.942;7.432;2023-04-24T02:54:19;12.60;99.90
10051;DHT22;5065;46.942;7.432;2023-04-24T02:56:47;12.60;99.90
10051;DHT22;5065;46.942;7.432;2023-04-24T02:59:14;12.60;99.90
10051;DHT22;5065;46.942;7.432;2023-04-24T03:01:41;12.60;99.90
10051;DHT22;5065;46.942;7.432;2023-04-24T03:04:08;12.60;99.90
10051;DHT22;5065;46.942;7.432;2023-04-24T03:06:37;12.60;99.90
10051;DHT22;5065;46.942;7.432;2023-04-24T03:09:04;12.50;99.90
10051;DHT22;5065;46.942;7.432;2023-04-24T03:11:31;12.50;99.90
10051;DHT22;5065;46.942;7.432;2023-04-24T03:13:58;12.60;99.90
10051;DHT22;5065;46.942;7.432;2023-04-24T03:16:26;12.50;99.90
10051;DHT22;5065;46.942;7.432;2023-04-24T03:18:53;12.60;99.90
10051;DHT22;5065;46.942;7.432;2023-04-24T03:21:20;12.60;99.90
10051;DHT22;5065;46.942;7.432;2023-04-24T03:23:49;12.60;99.90
10051;DHT22;5065;46.942;7.432;2023-04-24T03:26:16;12.60;99.90
10051;DHT22;5065;46.942;7.432;2023-04-24T03:28:43;12.60;99.90
10051;DHT22;5065;46.942;7.432;2023-04-24T03:31:10;12.60;99.90
10051;DHT22;5065;46.942;7.432;2023-04-24T03:33:37;12.60;99.90
10051;DHT22;5065;46.942;7.432;2023-04-24T03:36:05;12.50;99.90
10051;DHT22;5065;46.942;7.432;2023-04-24T03:38:32;12.50;99.90
10051;DHT22;5065;46.942;7.432;2023-04-24T03:41:00;12.50;99.90
10051;DHT22;5065;46.942;7.432;2023-04-24T03:43:27;12.50;99.90
10051;DHT22;5065;46.942;7.432;2023-04-24T03:45:55;12.50;99.90
10051;DHT22;5065;46.942;7.432;2023-04-24T03:48:22;12.50;99.90
10051;DHT22;5065;46.942;7.432;2023-04-24T03:50:49;12.50;99.90
10051;DHT22;5065;46.942;7.432;2023-04-24T03:53:16;12.50;99.90
10051;DHT22;5065;46.942;7.432;2023-04-24T03:55:43;12.60;99.90
10051;DHT22;5065;46.942;7.432;2023-04-24T03:58:12;12.60;99.90
10051;DHT22;5065;46.942;7.432;2023-04-24T04:00:40;12.60;99.90
10051;DHT22;5065;46.942;7.432;2023-04-24T04:03:07;12.60;99.90
10051;DHT22;5065;46.942;7.432;2023-04-24T04:05:34;12.60;99.90
10051;DHT22;5065;46.942;7.432;2023-04-24T04:08:01;12.60;99.90
10051;DHT22;5065;46.942;7.432;2023-04-24T04:10:28;12.60;99.90
10051;DHT22;5065;46.942;7.432;2023-04-24T04:12:57;12.60;99.90
10051;DHT22;5065;46.942;7.432;2023-04-24T04:15:26;12.60;99.90
10051;DHT22;5065;46.942;7.432;2023-04-24T04:17:53;12.50;99.90
10051;DHT22;5065;46.942;7.432;2023-04-24T04:20:20;12.50;99.90
10051;DHT22;5065;46.942;7.432;2023-04-24T04:22:47;12.50;99.90
10051;DHT22;5065;46.942;7.432;2023-04-24T04:25:14;12.50;99.90
10051;DHT22;5065;46.942;7.432;2023-04-24T04:27:41;12.50;99.90
10051;DHT22;5065;46.942;7.432;2023-04-24T04:30:09;12.40;99.90
10051;DHT22;5065;46.942;7.432;2023-04-24T04:32:37;12.40;99.90
10051;DHT22;5065;46.942;7.432;2023-04-24T04:35:05;12.40;99.90
10051;DHT22;5065;46.942;7.432;2023-04-24T04:37:33;12.40;99.90
10051;DHT22;5065;46.942;7.432;2023-04-24T04:40:01;12.40;99.90
10051;DHT22;5065;46.942;7.432;2023-04-24T04:42:32;12.40;99.90
10051;DHT22;5065;46.942;7.432;2023-04-24T04:44:59;12.40;99.90
10051;DHT22;5065;46.942;7.432;2023-04-24T04:47:26;12.40;99.90
10051;DHT22;5065;46.942;7.432;2023-04-24T04:49:55;12.40;99.90
10051;DHT22;5065;46.942;7.432;2023-04-24T04:52:22;12.40;99.90
10051;DHT22;5065;46.942;7.432;2023-04-24T04:54:52;12.40;99.90
10051;DHT22;5065;46.942;7.432;2023-04-24T04:57:19;12.40;99.90
10051;DHT22;5065;46.942;7.432;2023-04-24T04:59:46;12.40;99.90
10051;DHT22;5065;46.942;7.432;2023-04-24T05:02:13;12.40;99.90
10051;DHT22;5065;46.942;7.432;2023-04-24T05:04:40;12.40;99.90
10051;DHT22;5065;46.942;7.432;2023-04-24T05:07:09;12.40;99.90
10051;DHT22;5065;46.942;7.432;2023-04-24T05:09:36;12.40;99.90
10051;DHT22;5065;46.942;7.432;2023-04-24T05:12:03;12.40;99.90
10051;DHT22;5065;46.942;7.432;2023-04-24T05:14:30;12.40;99.90
10051;DHT22;5065;46.942;7.432;2023-04-24T05:16:57;12.40;99.90
10051;DHT22;5065;46.942;7.432;2023-04-24T05:19:26;12.50;99.90
10051;DHT22;5065;46.942;7.432;2023-04-24T05:21:53;12.50;99.90
10051;DHT22;5065;46.942;7.432;2023-04-24T05:24:21;12.50;99.90
10051;DHT22;5065;46.942;7.432;2023-04-24T05:26:50;12.50;99.90
10051;DHT22;5065;46.942;7.432;2023-04-24T05:29:17;12.50;99.90
10051;DHT22;5065;46.942;7.432;2023-04-24T05:31:44;12.50;99.90
10051;DHT22;5065;46.942;7.432;2023-04-24T05:34:12;12.50;99.90
10051;DHT22;5065;46.942;7.432;2023-04-24T05:36:39;12.50;99.90
10051;DHT22;5065;46.942;7.432;2023-04-24T05:39:06;12.60;99.90
10051;DHT22;5065;46.942;7.432;2023-04-24T05:41:35;12.60;99.90
10051;DHT22;5065;46.942;7.432;2023-04-24T05:44:02;12.60;99.90
10051;DHT22;5065;46.942;7.432;2023-04-24T05:46:29;12.70;99.90
10051;DHT22;5065;46.942;7.432;2023-04-24T05:48:56;12.70;99.90
10051;DHT22;5065;46.942;7.432;2023-04-24T05:51:24;12.70;99.90
10051;DHT22;5065;46.942;7.432;2023-04-24T05:53:52;12.70;99.90
10051;DHT22;5065;46.942;7.432;2023-04-24T05:56:19;12.70;99.90
10051;DHT22;5065;46.942;7.432;2023-04-24T05:58:48;12.80;99.90
10051;DHT22;5065;46.942;7.432;2023-04-24T06:01:15;12.90;99.90
10051;DHT22;5065;46.942;7.432;2023-04-24T06:03:42;12.90;99.90
10051;DHT22;5065;46.942;7.432;2023-04-24T06:06:09;13.00;99.90
10051;DHT22;5065;46.942;7.432;2023-04-24T06:08:36;13.10;99.90
10051;DHT22;5065;46.942;7.432;2023-04-24T06:11:03;13.10;99.90
10051;DHT22;5065;46.942;7.432;2023-04-24T06:13:31;13.30;99.90
10051;DHT22;5065;46.942;7.432;2023-04-24T06:15:59;13.50;99.90
10051;DHT22;5065;46.942;7.432;2023-04-24T06:18:27;13.90;99.90
10051;DHT22;5065;46.942;7.432;2023-04-24T06:20:54;14.30;99.90
10051;DHT22;5065;46.942;7.432;2023-04-24T06:23:21;14.70;99.90
10051;DHT22;5065;46.942;7.432;2023-04-24T06:25:49;15.00;99.90
10051;DHT22;5065;46.942;7.432;2023-04-24T06:28:16;15.40;99.90
10051;DHT22;5065;46.942;7.432;2023-04-24T06:30:44;15.80;99.90
10051;DHT22;5065;46.942;7.432;2023-04-24T06:33:12;16.00;99.90
10051;DHT22;5065;46.942;7.432;2023-04-24T06:35:39;16.40;99.90
10051;DHT22;5065;46.942;7.432;2023-04-24T06:38:07;16.70;99.90
10051;DHT22;5065;46.942;7.432;2023-04-24T06:40:34;16.80;99.90
10051;DHT22;5065;46.942;7.432;2023-04-24T06:43:01;17.00;99.90
10051;DHT22;5065;46.942;7.432;2023-04-24T06:45:28;17.10;99.90
10051;DHT22;5065;46.942;7.432;2023-04-24T06:47:56;17.20;99.90
10051;DHT22;5065;46.942;7.432;2023-04-24T06:50:24;17.10;99.90
10051;DHT22;5065;46.942;7.432;2023-04-24T06:52:52;16.90;99.90
10051;DHT22;5065;46.942;7.432;2023-04-24T06:55:19;17.00;99.90
10051;DHT22;5065;46.942;7.432;2023-04-24T06:57:46;17.30;99.90
10051;DHT22;5065;46.942;7.432;2023-04-24T07:00:14;17.50;99.90
10051;DHT22;5065;46.942;7.432;2023-04-24T07:02:41;17.80;99.90
10051;DHT22;5065;46.942;7.432;2023-04-24T07:05:08;18.10;99.90
10051;DHT22;5065;46.942;7.432;2023-04-24T07:07:37;18.40;99.90
10051;DHT22;5065;46.942;7.432;2023-04-24T07:10:06;18.50;99.90
10051;DHT22;5065;46.942;7.432;2023-04-24T07:12:34;18.80;99.90
10051;DHT22;5065;46.942;7.432;2023-04-24T07:15:02;18.90;99.90
10051;DHT22;5065;46.942;7.432;2023-04-24T07:17:29;18.80;99.90
10051;DHT22;5065;46.942;7.432;2023-04-24T07:19:56;18.60;99.90
10051;DHT22;5065;46.942;7.432;2023-04-24T07:22:23;18.30;99.90
10051;DHT22;5065;46.942;7.432;2023-04-24T07:24:52;18.00;99.90
10051;DHT22;5065;46.942;7.432;2023-04-24T07:27:19;17.90;99.90
10051;DHT22;5065;46.942;7.432;2023-04-24T07:29:46;18.00;99.90
10051;DHT22;5065;46.942;7.432;2023-04-24T07:32:14;18.30;99.90
10051;DHT22;5065;46.942;7.432;2023-04-24T07:34:41;18.50;99.90
10051;DHT22;5065;46.942;7.432;2023-04-24T07:37:08;18.50;99.90
10051;DHT22;5065;46.942;7.432;2023-04-24T07:39:35;18.40;99.90
10051;DHT22;5065;46.942;7.432;2023-04-24T07:42:04;18.20;99.90
10051;DHT22;5065;46.942;7.432;2023-04-24T07:44:33;18.00;99.90
10051;DHT22;5065;46.942;7.432;2023-04-24T07:47:01;17.80;99.90
10051;DHT22;5065;46.942;7.432;2023-04-24T07:49:28;17.60;99.90
10051;DHT22;5065;46.942;7.432;2023-04-24T07:51:56;17.40;99.90
10051;DHT22;5065;46.942;7.432;2023-04-24T07:54:23;17.20;99.90
10051;DHT22;5065;46.942;7.432;2023-04-24T07:56:50;16.90;99.90
10051;DHT22;5065;46.942;7.432;2023-04-24T07:59:19;16.60;99.90
10051;DHT22;5065;46.942;7.432;2023-04-24T08:01:46;16.30;99.90
10051;DHT22;5065;46.942;7.432;2023-04-24T08:04:13;16.10;99.90
10051;DHT22;5065;46.942;7.432;2023-04-24T08:06:41;15.80;99.90
10051;DHT22;5065;46.942;7.432;2023-04-24T08:09:08;15.70;99.90
10051;DHT22;5065;46.942;7.432;2023-04-24T08:11:35;15.60;99.90
10051;DHT22;5065;46.942;7.432;2023-04-24T08:14:03;15.50;99.90
10051;DHT22;5065;46.942;7.432;2023-04-24T08:16:32;15.40;99.90
10051;DHT22;5065;46.942;7.432;2023-04-24T08:18:59;15.40;99.90
10051;DHT22;5065;46.942;7.432;2023-04-24T08:21:27;15.40;99.90
10051;DHT22;5065;46.942;7.432;2023-04-24T08:23:54;15.40;99.90
10051;DHT22;5065;46.942;7.432;2023-04-24T08:26:21;15.40;99.90
10051;DHT22;5065;46.942;7.432;2023-04-24T08:28:48;15.40;99.90
10051;DHT22;5065;46.942;7.432;2023-04-24T08:31:15;15.40;99.90
10051;DHT22;5065;46.942;7.432;2023-04-24T08:33:44;15.50;99.90
10051;DHT22;5065;46.942;7.432;2023-04-24T08:36:11;15.60;99.90
10051;DHT22;5065;46.942;7.432;2023-04-24T08:38:38;15.70;99.90
10051;DHT22;5065;46.942;7.432;2023-04-24T08:41:06;15.90;99.90
10051;DHT22;5065;46.942;7.432;2023-04-24T08:43:35;16.10;99.90
10051;DHT22;5065;46.942;7.432;2023-04-24T08:46:04;16.20;99.90
10051;DHT22;5065;46.942;7.432;2023-04-24T08:48:34;16.30;99.90
10051;DHT22;5065;46.942;7.432;2023-04-24T08:51:07;16.50;99.90
10051;DHT22;5065;46.942;7.432;2023-04-24T08:53:35;16.80;99.90
10051;DHT22;5065;46.942;7.432;2023-04-24T08:56:03;17.10;99.90
10051;DHT22;5065;46.942;7.432;2023-04-24T08:58:36;17.40;99.90
10051;DHT22;5065;46.942;7.432;2023-04-24T09:01:04;17.60;99.90
10051;DHT22;5065;46.942;7.432;2023-04-24T09:03:36;17.70;99.90
10051;DHT22;5065;46.942;7.432;2023-04-24T09:06:06;17.70;99.90
10051;DHT22;5065;46.942;7.432;2023-04-24T09:08:36;17.60;99.90
10051;DHT22;5065;46.942;7.432;2023-04-24T09:11:03;17.40;99.90
10051;DHT22;5065;46.942;7.432;2023-04-24T09:13:30;17.30;99.90
10051;DHT22;5065;46.942;7.432;2023-04-24T09:15:59;17.10;99.90
10051;DHT22;5065;46.942;7.432;2023-04-24T09:18:28;17.00;99.90
10051;DHT22;5065;46.942;7.432;2023-04-24T09:21:00;16.80;99.90
10051;DHT22;5065;46.942;7.432;2023-04-24T09:23:30;16.60;99.90
10051;DHT22;5065;46.942;7.432;2023-04-24T09:26:00;16.60;99.90
10051;DHT22;5065;46.942;7.432;2023-04-24T09:28:30;16.40;99.90
10051;DHT22;5065;46.942;7.432;2023-04-24T09:31:05;16.30;99.90
10051;DHT22;5065;46.942;7.432;2023-04-24T09:33:33;16.30;99.90
10051;DHT22;5065;46.942;7.432;2023-04-24T09:36:00;16.20;99.90
10051;DHT22;5065;46.942;7.432;2023-04-24T09:38:37;16.10;99.90
10051;DHT22;5065;46.942;7.432;2023-04-24T09:41:06;16.00;99.90
10051;DHT22;5065;46.942;7.432;2023-04-24T09:43:35;16.00;99.90
10051;DHT22;5065;46.942;7.432;2023-04-24T09:46:05;16.00;99.90
10051;DHT22;5065;46.942;7.432;2023-04-24T09:48:33;16.00;99.90
10051;DHT22;5065;46.942;7.432;2023-04-24T09:51:01;16.10;99.90
10051;DHT22;5065;46.942;7.432;2023-04-24T09:53:29;16.10;99.90
10051;DHT22;5065;46.942;7.432;2023-04-24T09:56:02;16.20;99.90
10051;DHT22;5065;46.942;7.432;2023-04-24T09:58:30;16.30;99.90
10051;DHT22;5065;46.942;7.432;2023-04-24T10:00:57;16.40;99.90
10051;DHT22;5065;46.942;7.432;2023-04-24T10:03:25;16.40;99.90
10051;DHT22;5065;46.942;7.432;2023-04-24T10:05:58;16.30;99.90
10051;DHT22;5065;46.942;7.432;2023-04-24T10:08:26;16.20;99.90
10051;DHT22;5065;46.942;7.432;2023-04-24T10:10:53;16.10;99.90
10051;DHT22;5065;46.942;7.432;2023-04-24T10:13:25;16.10;99.90
10051;DHT22;5065;46.942;7.432;2023-04-24T10:15:53;16.20;99.90
10051;DHT22;5065;46.942;7.432;2023-04-24T10:18:21;16.40;99.90
10051;DHT22;5065;46.942;7.432;2023-04-24T10:20:48;16.60;99.90
10051;DHT22;5065;46.942;7.432;2023-04-24T10:23:16;16.90;99.90
10051;DHT22;5065;46.942;7.432;2023-04-24T10:25:45;17.10;99.90
10051;DHT22;5065;46.942;7.432;2023-04-24T10:28:12;17.20;99.90
10051;DHT22;5065;46.942;7.432;2023-04-24T10:30:43;17.20;99.90
10051;DHT22;5065;46.942;7.432;2023-04-24T10:33:10;17.20;99.90
10051;DHT22;5065;46.942;7.432;2023-04-24T10:35:41;17.20;99.90
10051;DHT22;5065;46.942;7.432;2023-04-24T10:38:12;17.20;99.90
10051;DHT22;5065;46.942;7.432;2023-04-24T10:40:39;17.30;99.90
10051;DHT22;5065;46.942;7.432;2023-04-24T10:43:08;17.40;99.90
10051;DHT22;5065;46.942;7.432;2023-04-24T10:45:37;17.40;99.90
10051;DHT22;5065;46.942;7.432;2023-04-24T10:48:07;17.50;99.90
10051;DHT22;5065;46.942;7.432;2023-04-24T10:50:44;17.50;99.90
10051;DHT22;5065;46.942;7.432;2023-04-24T10:53:17;17.50;99.90
10051;DHT22;5065;46.942;7.432;2023-04-24T10:55:46;17.40;99.90
10051;DHT22;5065;46.942;7.432;2023-04-24T10:58:13;17.40;99.90
10051;DHT22;5065;46.942;7.432;2023-04-24T11:00:43;17.30;99.90
10051;DHT22;5065;46.942;7.432;2023-04-24T11:03:25;17.30;99.90
10051;DHT22;5065;46.942;7.432;2023-04-24T11:05:56;17.20;99.90
10051;DHT22;5065;46.942;7.432;2023-04-24T11:08:26;17.20;99.90
10051;DHT22;5065;46.942;7.432;2023-04-24T11:11:02;17.20;99.90
10051;DHT22;5065;46.942;7.432;2023-04-24T11:16:35;17.10;99.90
10051;DHT22;5065;46.942;7.432;2023-04-24T11:19:06;17.10;99.90
10051;DHT22;5065;46.942;7.432;2023-04-24T11:21:43;17.00;99.90
10051;DHT22;5065;46.942;7.432;2023-04-24T11:24:24;17.00;99.90
10051;DHT22;5065;46.942;7.432;2023-04-24T11:26:56;17.00;99.90
10051;DHT22;5065;46.942;7.432;2023-04-24T11:29:38;17.00;99.90
10051;DHT22;5065;46.942;7.432;2023-04-24T11:32:15;17.00;99.90
10051;DHT22;5065;46.942;7.432;2023-04-24T11:34:47;17.00;99.90
10051;DHT22;5065;46.942;7.432;2023-04-24T11:37:14;16.90;99.90
10051;DHT22;5065;46.942;7.432;2023-04-24T11:39:42;16.70;99.90
10051;DHT22;5065;46.942;7.432;2023-04-24T11:42:14;16.60;99.90
10051;DHT22;5065;46.942;7.432;2023-04-24T11:44:42;16.60;99.90
10051;DHT22;5065;46.942;7.432;2023-04-24T11:47:10;16.40;99.90
10051;DHT22;5065;46.942;7.432;2023-04-24T11:49:37;16.30;99.90
10051;DHT22;5065;46.942;7.432;2023-04-24T11:52:09;16.30;99.90
10051;DHT22;5065;46.942;7.432;2023-04-24T11:54:37;16.10;99.90
10051;DHT22;5065;46.942;7.432;2023-04-24T11:57:13;16.10;99.90
10051;DHT22;5065;46.942;7.432;2023-04-24T11:59:40;16.10;99.90
10051;DHT22;5065;46.942;7.432;2023-04-24T12:02:08;16.10;99.90
10051;DHT22;5065;46.942;7.432;2023-04-24T12:04:39;16.20;99.90
10051;DHT22;5065;46.942;7.432;2023-04-24T12:07:09;16.20;99.90
10051;DHT22;5065;46.942;7.432;2023-04-24T12:09:43;16.20;99.90
10051;DHT22;5065;46.942;7.432;2023-04-24T12:12:12;16.10;99.90
10051;DHT22;5065;46.942;7.432;2023-04-24T12:14:47;16.10;99.90
10051;DHT22;5065;46.942;7.432;2023-04-24T12:17:15;16.00;99.90
10051;DHT22;5065;46.942;7.432;2023-04-24T12:19:46;16.00;99.90
10051;DHT22;5065;46.942;7.432;2023-04-24T12:22:15;15.90;99.90
10051;DHT22;5065;46.942;7.432;2023-04-24T12:24:59;16.00;99.90
10051;DHT22;5065;46.942;7.432;2023-04-24T12:27:29;16.00;99.90
10051;DHT22;5065;46.942;7.432;2023-04-24T12:29:58;16.00;99.90
10051;DHT22;5065;46.942;7.432;2023-04-24T12:32:26;16.00;99.90
10051;DHT22;5065;46.942;7.432;2023-04-24T12:34:55;16.10;99.90
10051;DHT22;5065;46.942;7.432;2023-04-24T12:37:25;16.20;99.90
10051;DHT22;5065;46.942;7.432;2023-04-24T12:40:00;16.30;99.90
10051;DHT22;5065;46.942;7.432;2023-04-24T12:42:28;16.30;99.90
10051;DHT22;5065;46.942;7.432;2023-04-24T12:45:00;16.20;99.90
10051;DHT22;5065;46.942;7.432;2023-04-24T12:47:30;16.30;99.90
10051;DHT22;5065;46.942;7.432;2023-04-24T12:49:57;16.20;99.90
10051;DHT22;5065;46.942;7.432;2023-04-24T12:52:27;16.30;99.90
10051;DHT22;5065;46.942;7.432;2023-04-24T12:54:56;16.40;99.90
10051;DHT22;5065;46.942;7.432;2023-04-24T12:57:24;16.40;99.90
10051;DHT22;5065;46.942;7.432;2023-04-24T12:59:55;16.40;99.90
10051;DHT22;5065;46.942;7.432;2023-04-24T13:02:22;16.50;99.90
10051;DHT22;5065;46.942;7.432;2023-04-24T13:04:51;16.50;99.90
10051;DHT22;5065;46.942;7.432;2023-04-24T13:07:18;16.50;99.90
10051;DHT22;5065;46.942;7.432;2023-04-24T13:09:48;16.60;99.90
10051;DHT22;5065;46.942;7.432;2023-04-24T13:12:16;16.70;99.90
10051;DHT22;5065;46.942;7.432;2023-04-24T13:14:43;16.70;99.90
10051;DHT22;5065;46.942;7.432;2023-04-24T13:17:13;16.80;99.90
10051;DHT22;5065;46.942;7.432;2023-04-24T13:19:42;16.80;99.90
10051;DHT22;5065;46.942;7.432;2023-04-24T13:22:11;16.80;99.90
10051;DHT22;5065;46.942;7.432;2023-04-24T13:24:39;16.80;99.90
10051;DHT22;5065;46.942;7.432;2023-04-24T13:27:09;16.80;99.90
10051;DHT22;5065;46.942;7.432;2023-04-24T13:29:36;16.70;99.90
10051;DHT22;5065;46.942;7.432;2023-04-24T13:32:06;16.70;99.90
10051;DHT22;5065;46.942;7.432;2023-04-24T13:34:34;16.70;99.90
10051;DHT22;5065;46.942;7.432;2023-04-24T13:37:02;16.70;99.90
10051;DHT22;5065;46.942;7.432;2023-04-24T13:39:30;16.70;99.90
10051;DHT22;5065;46.942;7.432;2023-04-24T13:41:57;16.70;99.90
10051;DHT22;5065;46.942;7.432;2023-04-24T13:44:26;16.60;99.90
10051;DHT22;5065;46.942;7.432;2023-04-24T13:46:54;16.70;99.90
10051;DHT22;5065;46.942;7.432;2023-04-24T13:49:23;16.70;99.90
10051;DHT22;5065;46.942;7.432;2023-04-24T13:51:52;16.60;99.90
10051;DHT22;5065;46.942;7.432;2023-04-24T13:54:22;16.60;99.90
10051;DHT22;5065;46.942;7.432;2023-04-24T13:56:51;16.70;99.90
10051;DHT22;5065;46.942;7.432;2023-04-24T13:59:19;16.60;99.90
10051;DHT22;5065;46.942;7.432;2023-04-24T14:01:48;16.70;99.90
10051;DHT22;5065;46.942;7.432;2023-04-24T14:04:16;16.70;99.90
10051;DHT22;5065;46.942;7.432;2023-04-24T14:06:43;16.70;99.90
10051;DHT22;5065;46.942;7.432;2023-04-24T14:09:11;16.70;99.90
10051;DHT22;5065;46.942;7.432;2023-04-24T14:11:38;16.60;99.90
10051;DHT22;5065;46.942;7.432;2023-04-24T14:14:06;16.60;99.90
10051;DHT22;5065;46.942;7.432;2023-04-24T14:16:33;16.60;99.90
10051;DHT22;5065;46.942;7.432;2023-04-24T14:19:02;16.70;99.90
10051;DHT22;5065;46.942;7.432;2023-04-24T14:21:30;16.70;99.90
10051;DHT22;5065;46.942;7.432;2023-04-24T14:23:58;16.70;99.90
10051;DHT22;5065;46.942;7.432;2023-04-24T14:26:25;16.70;99.90
10051;DHT22;5065;46.942;7.432;2023-04-24T14:28:52;16.70;99.90
10051;DHT22;5065;46.942;7.432;2023-04-24T14:31:20;16.70;99.90
10051;DHT22;5065;46.942;7.432;2023-04-24T14:33:48;16.70;99.90
10051;DHT22;5065;46.942;7.432;2023-04-24T14:36:19;16.70;99.90
10051;DHT22;5065;46.942;7.432;2023-04-24T14:38:49;16.80;99.90
10051;DHT22;5065;46.942;7.432;2023-04-24T14:41:16;16.80;99.90
10051;DHT22;5065;46.942;7.432;2023-04-24T14:43:43;16.70;99.90
10051;DHT22;5065;46.942;7.432;2023-04-24T14:46:13;16.70;99.90
10051;DHT22;5065;46.942;7.432;2023-04-24T14:48:41;16.70;99.90
10051;DHT22;5065;46.942;7.432;2023-04-24T14:51:08;16.70;99.90
10051;DHT22;5065;46.942;7.432;2023-04-24T14:53:37;16.70;99.90
10051;DHT22;5065;46.942;7.432;2023-04-24T14:56:04;16.60;99.90
10051;DHT22;5065;46.942;7.432;2023-04-24T14:58:32;16.50;99.90
10051;DHT22;5065;46.942;7.432;2023-04-24T15:00:59;16.50;99.90
10051;DHT22;5065;46.942;7.432;2023-04-24T15:03:26;16.50;99.90
10051;DHT22;5065;46.942;7.432;2023-04-24T15:05:54;16.50;99.90
10051;DHT22;5065;46.942;7.432;2023-04-24T15:08:21;16.50;99.90
10051;DHT22;5065;46.942;7.432;2023-04-24T15:10:51;16.40;99.90
10051;DHT22;5065;46.942;7.432;2023-04-24T15:13:18;16.40;99.90
10051;DHT22;5065;46.942;7.432;2023-04-24T15:15:46;16.50;99.90
10051;DHT22;5065;46.942;7.432;2023-04-24T15:18:13;16.50;99.90
10051;DHT22;5065;46.942;7.432;2023-04-24T15:20:41;16.50;99.90
10051;DHT22;5065;46.942;7.432;2023-04-24T15:23:09;16.40;99.90
10051;DHT22;5065;46.942;7.432;2023-04-24T15:25:41;16.40;99.90
10051;DHT22;5065;46.942;7.432;2023-04-24T15:28:10;16.40;99.90
10051;DHT22;5065;46.942;7.432;2023-04-24T15:30:37;16.40;99.90
10051;DHT22;5065;46.942;7.432;2023-04-24T15:33:04;16.40;99.90
10051;DHT22;5065;46.942;7.432;2023-04-24T15:35:31;16.40;99.90
10051;DHT22;5065;46.942;7.432;2023-04-24T15:38:00;16.40;99.90
10051;DHT22;5065;46.942;7.432;2023-04-24T15:40:28;16.40;99.90
10051;DHT22;5065;46.942;7.432;2023-04-24T15:42:55;16.40;99.90
10051;DHT22;5065;46.942;7.432;2023-04-24T15:45:24;16.40;99.90
10051;DHT22;5065;46.942;7.432;2023-04-24T15:47:52;16.40;99.90
10051;DHT22;5065;46.942;7.432;2023-04-24T15:50:19;16.30;99.90
10051;DHT22;5065;46.942;7.432;2023-04-24T15:52:47;16.30;99.90
10051;DHT22;5065;46.942;7.432;2023-04-24T15:55:14;16.20;99.90